Cottonville, North Carolina
Current Conditions -  °F | °C
As of 1:35 AM on Monday 24 Nov 2014 (Local Time) from KVUJ Reporting Station
Overcast Overcast  
Wind Chill: 17°   Ceiling: 2200
Heat Index: 17°   Visibility: 10mi
Dew Point: 17°   Wind: 10mph
Humidity: 99%   Direction: 220°SW
Pressure: 29.78"   Gusts: 16mph
Location:  35.2152°N, 80.1663°W
Report Text: KVUJ 240635Z AUTO 22009G14KT 10SM OVC022 17/17 A2978 RMK AO2 LTG DSNT E AND W T01700169
Loading
Personal Weather Stations






























Interactive Weather Map New forecast layout! Learn more

10-Day Weather Forecast

Advertisements
Track Severe Weather on mobile